Dades meteomassalio
Diari Summary for Diciembre 17, 2017 Units:  English    Metric   Both
« Previous Day
Next Day »
Diari Semanal Mensual Anual Personalitzat
  Maxima: Minima: Mijana:
Temperatura: TemperatureC °F -0.6 °F 5.3 °F
Rosada: DewpointC °F -3.9 °F 0.2 °F
Humitat: Humidity % 49 % 70 %
Velocitat del vent: WindSpeedKMH mph 0.0 mph 18.5 mph
Racha vent: WindSpeedGustKMH mph - -
Vent:- - NW
Pressio: PressurehPa in 1028.7 in -
Pluja: 0.0 in    
Historical Graphs
 
 
Tabular Data for Diciembre 17, 2017
Time Temperature Dew Point Pressure Wind Wind Speed Wind Gust Humidity Rainfall Rate (Hourly) solar Conditions
TemperatureC °F DewpointC °F PressurehPa in Calm     Humidity % HourlyPrecipMM in SolarRadiationWatts/m^2 W/m2 Conditions
00:01 4.4 °F 0.6 °F 1029.0 in NNW 17.7 mph 17.7 mph 76 % 0.0 in 0.0 W/m2 CLR
00:03 3.9 °F 0.1 °F 1029.0 in NW 5.6 mph 5.6 mph 76 % 0.0 in 0.0 W/m2 CLR
00:07 3.9 °F 0.1 °F 1029.0 in WNW 14.8 mph 14.8 mph 76 % 0.0 in 0.0 W/m2 CLR
00:10 3.9 °F 0.1 °F 1029.0 in WNW 13.0 mph 13.0 mph 76 % 0.0 in 0.0 W/m2 CLR
00:12 3.9 °F 0.1 °F 1029.0 in WNW 16.7 mph 16.7 mph 76 % 0.0 in 0.0 W/m2 CLR
00:18 3.9 °F -0.2 °F 1029.0 in NW 19.3 mph 19.3 mph 75 % 0.0 in 0.0 W/m2 CLR
00:23 3.9 °F -0.2 °F 1029.0 in NW 18.5 mph 18.5 mph 75 % 0.0 in 0.0 W/m2 CLR
00:25 3.9 °F -0.2 °F 1029.0 in NW 19.3 mph 19.3 mph 75 % 0.0 in 0.0 W/m2 CLR
00:30 3.9 °F -0.2 °F 1029.0 in NW 18.5 mph 18.5 mph 75 % 0.0 in 0.0 W/m2 CLR
00:32 3.9 °F -0.2 °F 1029.0 in NW 20.4 mph 20.4 mph 75 % 0.0 in 0.0 W/m2 CLR
00:33 3.9 °F -0.2 °F 1029.0 in NW 24.1 mph 24.1 mph 75 % 0.0 in 0.0 W/m2 CLR
00:38 3.9 °F -0.2 °F 1029.0 in NW 27.8 mph 27.8 mph 75 % 0.0 in 0.0 W/m2 CLR
00:40 3.9 °F -0.2 °F 1029.0 in NW 27.8 mph 27.8 mph 75 % 0.0 in 0.0 W/m2 CLR
00:43 3.9 °F -0.2 °F 1029.0 in NW 29.6 mph 29.6 mph 75 % 0.0 in 0.0 W/m2 CLR
00:45 3.9 °F -0.2 °F 1029.0 in NNW 27.8 mph 27.8 mph 75 % 0.0 in 0.0 W/m2 CLR
00:50 3.9 °F -0.2 °F 1029.0 in NNW 31.5 mph 31.5 mph 75 % 0.0 in 0.0 W/m2 CLR
00:55 3.9 °F -0.2 °F 1029.0 in NW 22.2 mph 22.2 mph 75 % 0.0 in 0.0 W/m2 CLR
00:58 3.9 °F -0.2 °F 1029.0 in NNW 24.1 mph 24.1 mph 75 % 0.0 in 0.0 W/m2 CLR
01:01 3.9 °F -0.2 °F 1029.0 in NW 18.5 mph 18.5 mph 75 % 0.0 in 0.0 W/m2 CLR
01:06 3.9 °F -0.2 °F 1029.0 in NW 18.5 mph 18.5 mph 75 % 0.0 in 0.0 W/m2 CLR
01:11 3.9 °F -0.2 °F 1029.0 in NW 27.8 mph 27.8 mph 75 % 0.0 in 0.0 W/m2 CLR
01:12 3.9 °F -0.2 °F 1028.7 in NW 27.8 mph 27.8 mph 75 % 0.0 in 0.0 W/m2 CLR
01:17 3.9 °F -0.2 °F 1028.7 in NW 20.9 mph 20.9 mph 75 % 0.0 in 0.0 W/m2 CLR
01:19 3.9 °F -0.2 °F 1028.7 in NW 24.1 mph 24.1 mph 75 % 0.0 in 0.0 W/m2 CLR
01:23 3.9 °F -0.2 °F 1029.0 in NW 24.1 mph 24.1 mph 75 % 0.0 in 0.0 W/m2 CLR
01:25 3.9 °F -0.2 °F 1029.0 in NW 20.9 mph 20.9 mph 75 % 0.0 in 0.0 W/m2 CLR
01:29 3.9 °F -0.2 °F 1029.0 in NW 22.2 mph 22.2 mph 75 % 0.0 in 0.0 W/m2 CLR
01:34 3.9 °F 0.1 °F 1029.0 in NW 25.9 mph 25.9 mph 76 % 0.0 in 0.0 W/m2 CLR
01:39 3.9 °F 0.1 °F 1028.7 in WNW 29.0 mph 29.0 mph 76 % 0.0 in 0.0 W/m2 CLR
01:40 3.9 °F 0.1 °F 1028.7 in WNW 25.9 mph 25.9 mph 76 % 0.0 in 0.0 W/m2 CLR
01:41 3.9 °F 0.1 °F 1028.7 in NW 29.6 mph 29.6 mph 76 % 0.0 in 0.0 W/m2 CLR
01:45 3.9 °F 0.1 °F 1028.7 in NNW 29.6 mph 29.6 mph 76 % 0.0 in 0.0 W/m2 CLR
01:48 3.9 °F 0.1 °F 1028.7 in NW 25.7 mph 25.7 mph 76 % 0.0 in 0.0 W/m2 CLR
01:52 3.9 °F 0.2 °F 1028.7 in NNW 27.8 mph 27.8 mph 77 % 0.0 in 0.0 W/m2 CLR
01:53 3.9 °F 0.2 °F 1028.7 in NW 31.5 mph 31.5 mph 77 % 0.0 in 0.0 W/m2 CLR
01:58 3.9 °F 0.2 °F 1028.7 in NW 25.9 mph 25.9 mph 77 % 0.0 in 0.0 W/m2 CLR
02:03 3.9 °F 0.2 °F 1028.7 in NW 22.2 mph 22.2 mph 77 % 0.0 in 0.0 W/m2 CLR
02:04 3.9 °F 0.2 °F 1028.7 in NW 29.6 mph 29.6 mph 77 % 0.0 in 0.0 W/m2 CLR
02:09 3.9 °F 0.2 °F 1029.0 in NNW 22.5 mph 22.5 mph 77 % 0.0 in 0.0 W/m2 CLR
02:10 3.9 °F 0.2 °F 1029.0 in NW 31.5 mph 31.5 mph 77 % 0.0 in 0.0 W/m2 CLR
02:12 3.9 °F 0.4 °F 1028.7 in NW 31.5 mph 31.5 mph 78 % 0.0 in 0.0 W/m2 CLR
02:16 3.9 °F 0.2 °F 1029.0 in NW 25.9 mph 25.9 mph 77 % 0.0 in 0.0 W/m2 CLR
02:17 3.9 °F 0.2 °F 1029.0 in North 31.5 mph 31.5 mph 77 % 0.0 in 0.0 W/m2 CLR
02:22 3.9 °F 0.2 °F 1028.7 in NNW 29.6 mph 29.6 mph 77 % 0.0 in 0.0 W/m2 CLR
02:27 3.9 °F 0.2 °F 1029.0 in NNW 16.7 mph 16.7 mph 77 % 0.0 in 0.0 W/m2 CLR
02:29 3.9 °F 0.2 °F 1029.0 in NW 16.7 mph 16.7 mph 77 % 0.0 in 0.0 W/m2 CLR
02:33 3.3 °F -0.3 °F 1029.0 in NW 13.0 mph 13.0 mph 77 % 0.0 in 0.0 W/m2 CLR
02:36 3.3 °F -0.3 °F 1029.0 in NW 18.5 mph 18.5 mph 77 % 0.0 in 0.0 W/m2 CLR
02:38 3.3 °F -0.3 °F 1029.0 in NW 14.8 mph 14.8 mph 77 % 0.0 in 0.0 W/m2 CLR
02:43 3.3 °F -0.3 °F 1029.0 in NW 20.4 mph 20.4 mph 77 % 0.0 in 0.0 W/m2 CLR
02:46 3.3 °F -0.3 °F 1029.0 in NW 18.5 mph 18.5 mph 77 % 0.0 in 0.0 W/m2 CLR
02:51 3.3 °F -0.3 °F 1029.0 in WNW 18.5 mph 18.5 mph 77 % 0.0 in 0.0 W/m2 CLR
02:52 3.3 °F -0.3 °F 1029.0 in NW 18.5 mph 18.5 mph 77 % 0.0 in 0.0 W/m2 CLR
02:57 3.3 °F -0.3 °F 1029.3 in NW 18.5 mph 18.5 mph 77 % 0.0 in 0.0 W/m2 CLR
03:02 3.3 °F -0.3 °F 1029.3 in NW 16.7 mph 16.7 mph 77 % 0.0 in 0.0 W/m2 CLR
03:03 3.3 °F -0.3 °F 1029.3 in NW 13.0 mph 13.0 mph 77 % 0.0 in 0.0 W/m2 CLR
03:08 3.3 °F -0.3 °F 1029.3 in West 13.0 mph 13.0 mph 77 % 0.0 in 0.0 W/m2 CLR
03:09 3.3 °F -0.3 °F 1029.3 in NW 13.0 mph 13.0 mph 77 % 0.0 in 0.0 W/m2 CLR
03:14 3.3 °F -0.3 °F 1029.3 in WNW 12.9 mph 12.9 mph 77 % 0.0 in 0.0 W/m2 CLR
03:19 3.3 °F -0.3 °F 1029.3 in West 16.7 mph 16.7 mph 77 % 0.0 in 0.0 W/m2 CLR
03:20 3.3 °F -0.3 °F 1029.3 in West 9.3 mph 9.3 mph 77 % 0.0 in 0.0 W/m2 CLR
03:23 2.8 °F -1.1 °F 1029.3 in WNW 14.8 mph 14.8 mph 76 % 0.0 in 0.0 W/m2 CLR
03:26 3.3 °F -0.5 °F 1029.3 in Calm     76 % 0.0 in 0.0 W/m2 CLR
03:31 3.3 °F -0.5 °F 1029.3 in Calm     76 % 0.0 in 0.0 W/m2 CLR
03:36 3.3 °F -0.3 °F 1029.3 in WSW 9.3 mph 9.3 mph 77 % 0.0 in 0.0 W/m2 CLR
03:39 3.9 °F 0.2 °F 1029.3 in West 7.4 mph 7.4 mph 77 % 0.0 in 0.0 W/m2 CLR
03:41 3.9 °F 0.2 °F 1029.3 in West 16.7 mph 16.7 mph 77 % 0.0 in 0.0 W/m2 CLR
03:44 3.9 °F 0.2 °F 1029.3 in WNW 24.1 mph 24.1 mph 77 % 0.0 in 0.0 W/m2 CLR
03:49 3.9 °F 0.1 °F 1029.3 in Calm     76 % 0.0 in 0.0 W/m2 CLR
03:50 3.9 °F 0.1 °F 1029.3 in Calm     76 % 0.0 in 0.0 W/m2 CLR
03:55 3.9 °F 0.2 °F 1029.3 in West 13.0 mph 13.0 mph 77 % 0.0 in 0.0 W/m2 CLR
03:56 3.9 °F 0.2 °F 1029.7 in West 7.4 mph 7.4 mph 77 % 0.0 in 0.0 W/m2 CLR
04:01 3.9 °F 0.1 °F 1029.7 in NW 1.9 mph 1.9 mph 76 % 0.0 in 0.0 W/m2 CLR
04:02 3.9 °F 0.1 °F 1029.7 in WNW 5.6 mph 5.6 mph 76 % 0.0 in 0.0 W/m2 CLR
04:05 3.9 °F 0.2 °F 1029.7 in WNW 7.4 mph 7.4 mph 77 % 0.0 in 0.0 W/m2 CLR
04:10 3.3 °F -0.3 °F 1029.7 in NW 18.5 mph 18.5 mph 77 % 0.0 in 0.0 W/m2 CLR
04:11 3.3 °F -0.5 °F 1029.7 in WNW 14.8 mph 14.8 mph 76 % 0.0 in 0.0 W/m2 CLR
04:13 3.3 °F -0.5 °F 1029.7 in NW 14.5 mph 14.5 mph 76 % 0.0 in 0.0 W/m2 CLR
04:17 3.3 °F -0.5 °F 1029.7 in NW 14.8 mph 14.8 mph 76 % 0.0 in 0.0 W/m2 CLR
04:18 3.3 °F -0.5 °F 1029.3 in NW 20.9 mph 20.9 mph 76 % 0.0 in 0.0 W/m2 CLR
04:23 3.3 °F -0.5 °F 1029.7 in NW 18.5 mph 18.5 mph 76 % 0.0 in 0.0 W/m2 CLR
04:27 3.3 °F -0.5 °F 1029.3 in NW 20.9 mph 20.9 mph 76 % 0.0 in 0.0 W/m2 CLR
04:29 3.3 °F -0.5 °F 1029.3 in NW 14.8 mph 14.8 mph 76 % 0.0 in 0.0 W/m2 CLR
04:34 3.3 °F -0.5 °F 1029.3 in WNW 18.5 mph 18.5 mph 76 % 0.0 in 0.0 W/m2 CLR
04:39 3.3 °F -0.5 °F 1029.3 in West 9.7 mph 9.7 mph 76 % 0.0 in 0.0 W/m2 CLR
04:40 3.3 °F -0.5 °F 1029.3 in WNW 9.7 mph 9.7 mph 76 % 0.0 in 0.0 W/m2 CLR
04:45 3.3 °F -0.5 °F 1029.3 in SW 1.9 mph   76 % 0.0 in 0.0 W/m2 CLR
04:50 2.8 °F -1.1 °F 1029.3 in SW 7.4 mph 7.4 mph 76 % 0.0 in 0.0 W/m2 CLR
04:52 2.8 °F -0.8 °F 1029.3 in Calm     77 % 0.0 in 0.0 W/m2 CLR
04:57 3.3 °F -0.3 °F 1029.3 in WNW 12.9 mph 12.9 mph 77 % 0.0 in 0.0 W/m2 CLR
05:02 2.8 °F -0.7 °F 1029.3 in WNW 13.0 mph 13.0 mph 78 % 0.0 in 0.0 W/m2 CLR
05:04 2.8 °F -0.7 °F 1029.3 in WNW 11.1 mph 11.1 mph 78 % 0.0 in 0.0 W/m2 CLR
05:07 2.8 °F -0.7 °F 1029.3 in WNW 16.7 mph 16.7 mph 78 % 0.0 in 0.0 W/m2 CLR
05:09 2.8 °F -0.8 °F 1029.3 in WNW 13.0 mph 13.0 mph 77 % 0.0 in 0.0 W/m2 CLR
05:14 2.8 °F -0.8 °F 1029.3 in WNW 24.1 mph 24.1 mph 77 % 0.0 in 0.0 W/m2 CLR
05:15 2.8 °F -0.8 °F 1029.3 in NW 16.7 mph 16.7 mph 77 % 0.0 in 0.0 W/m2 CLR
05:20 2.8 °F -0.8 °F 1029.3 in NW 16.7 mph 16.7 mph 77 % 0.0 in 0.0 W/m2 CLR
05:21 2.8 °F -0.8 °F 1029.7 in West 16.7 mph 16.7 mph 77 % 0.0 in 0.0 W/m2 CLR
05:26 2.8 °F -0.8 °F 1029.7 in WNW 18.5 mph 18.5 mph 77 % 0.0 in 0.0 W/m2 CLR
05:27 2.8 °F -0.8 °F 1029.7 in West 18.5 mph 18.5 mph 77 % 0.0 in 0.0 W/m2 CLR
05:32 2.8 °F -0.8 °F 1029.7 in West 20.4 mph 20.4 mph 77 % 0.0 in 0.0 W/m2 CLR
05:37 2.8 °F -0.7 °F 1029.7 in West 18.5 mph 18.5 mph 78 % 0.0 in 0.0 W/m2 CLR
05:42 2.8 °F -0.8 °F 1030.0 in WNW 11.1 mph 11.1 mph 77 % 0.0 in 0.0 W/m2 CLR
05:43 2.8 °F -0.8 °F 1030.0 in WNW 13.0 mph 13.0 mph 77 % 0.0 in 0.0 W/m2 CLR
05:44 2.8 °F -0.8 °F 1030.0 in WNW 11.1 mph 11.1 mph 77 % 0.0 in 0.0 W/m2 CLR
05:48 2.2 °F -1.2 °F 1030.0 in WNW 14.5 mph 14.5 mph 78 % 0.0 in 0.0 W/m2 CLR
05:53 2.2 °F -1.2 °F 1030.0 in West 14.5 mph 14.5 mph 78 % 0.0 in 0.0 W/m2 CLR
05:54 2.2 °F -1.2 °F 1030.0 in WNW 18.5 mph 18.5 mph 78 % 0.0 in 0.0 W/m2 CLR
05:59 2.2 °F -1.2 °F 1030.0 in WNW 7.4 mph 7.4 mph 78 % 0.0 in 0.0 W/m2 CLR
06:04 2.2 °F -1.1 °F 1030.0 in West 18.5 mph 18.5 mph 79 % 0.0 in 0.0 W/m2 CLR
06:05 2.2 °F -1.1 °F 1030.0 in WNW 22.2 mph 22.2 mph 79 % 0.0 in 0.0 W/m2 CLR
06:09 2.2 °F -1.2 °F 1030.0 in WNW 18.5 mph 18.5 mph 78 % 0.0 in 0.0 W/m2 CLR
06:10 1.7 °F -1.6 °F 1030.0 in WNW 17.7 mph 17.7 mph 79 % 0.0 in 0.0 W/m2 CLR
06:15 1.7 °F -1.6 °F 1030.0 in West 16.7 mph 16.7 mph 79 % 0.0 in 0.0 W/m2 CLR
06:16 1.7 °F -1.6 °F 1030.0 in WNW 16.1 mph 16.1 mph 79 % 0.0 in 0.0 W/m2 CLR
06:21 1.7 °F -1.6 °F 1030.0 in WNW 18.5 mph 18.5 mph 79 % 0.0 in 0.0 W/m2 CLR
06:22 1.7 °F -1.6 °F 1030.0 in WNW 16.7 mph 16.7 mph 79 % 0.0 in 0.0 W/m2 CLR
06:26 1.7 °F -1.6 °F 1030.0 in NW 14.8 mph 14.8 mph 79 % 0.0 in 0.0 W/m2 CLR
06:28 1.7 °F -1.6 °F 1030.0 in WNW 16.7 mph 16.7 mph 79 % 0.0 in 0.0 W/m2 CLR
06:33 1.7 °F -1.6 °F 1030.0 in WNW 14.8 mph 14.8 mph 79 % 0.0 in 0.0 W/m2 CLR
06:35 1.7 °F -1.6 °F 1030.4 in WNW 8.0 mph 8.0 mph 79 % 0.0 in 0.0 W/m2 CLR
06:39 1.7 °F -1.6 °F 1030.4 in West 14.8 mph 14.8 mph 79 % 0.0 in 0.0 W/m2 CLR
06:41 1.7 °F -1.6 °F 1030.4 in West 14.8 mph 14.8 mph 79 % 0.0 in 0.0 W/m2 CLR
06:46 1.1 °F -2.1 °F 1030.4 in NW 6.4 mph 6.4 mph 79 % 0.0 in 0.0 W/m2 CLR
06:47 1.1 °F -2.1 °F 1030.4 in NW 13.0 mph 13.0 mph 79 % 0.0 in 0.0 W/m2 CLR
06:51 0.6 °F -2.7 °F 1030.4 in WNW 13.0 mph 13.0 mph 79 % 0.0 in 0.0 W/m2 CLR
06:56 0.0 °F -3.2 °F 1030.4 in WNW 16.7 mph 16.7 mph 79 % 0.0 in 0.0 W/m2 CLR
07:00 0.0 °F -3.2 °F 1030.4 in WNW 14.5 mph 14.5 mph 79 % 0.0 in 0.0 W/m2 CLR
07:02 0.0 °F -3.2 °F 1030.4 in West 3.7 mph 3.7 mph 79 % 0.0 in 0.0 W/m2 CLR
07:05 0.0 °F -3.2 °F 1030.7 in WNW 9.3 mph 9.3 mph 79 % 0.0 in 0.0 W/m2 CLR
07:08 0.0 °F -3.2 °F 1030.7 in West 11.1 mph 11.1 mph 79 % 0.0 in 0.0 W/m2 CLR
07:13 -0.6 °F -3.9 °F 1030.7 in West 9.3 mph 9.3 mph 78 % 0.0 in 0.0 W/m2 CLR
07:18 -0.6 °F -3.6 °F 1030.4 in WNW 18.5 mph 18.5 mph 80 % 0.0 in 0.0 W/m2 CLR
07:20 -0.6 °F -3.6 °F 1030.4 in WNW 13.0 mph 13.0 mph 80 % 0.0 in 0.0 W/m2 CLR
07:25 -0.6 °F -3.6 °F 1030.4 in WNW 16.7 mph 16.7 mph 80 % 0.0 in 0.0 W/m2 CLR
07:27 -0.6 °F -3.8 °F 1030.4 in West 13.0 mph 13.0 mph 79 % 0.0 in 0.0 W/m2 CLR
07:31 0.0 °F -3.2 °F 1030.4 in WNW 14.8 mph 14.8 mph 79 % 0.0 in 0.0 W/m2 CLR
07:36 0.0 °F -3.2 °F 1030.7 in WNW 18.5 mph 18.5 mph 79 % 0.0 in 0.0 W/m2 CLR
07:37 0.6 °F -2.7 °F 1030.7 in WNW 18.5 mph 18.5 mph 79 % 0.0 in 0.0 W/m2 CLR
07:40 0.6 °F -2.7 °F 1030.7 in WNW 18.5 mph 18.5 mph 79 % 0.0 in 0.0 W/m2 CLR
07:42 0.6 °F -2.8 °F 1030.7 in West 13.0 mph 13.0 mph 78 % 0.0 in 0.0 W/m2 CLR
07:47 1.1 °F -2.1 °F 1030.7 in WNW 14.8 mph 14.8 mph 79 % 0.0 in 0.0 W/m2 CLR
07:48 1.1 °F -2.1 °F 1030.7 in West 11.3 mph 11.3 mph 79 % 0.0 in 0.0 W/m2 CLR
07:53 1.7 °F -1.6 °F 1031.0 in WNW 14.8 mph 14.8 mph 79 % 0.0 in 0.0 W/m2 CLR
07:55 1.7 °F -1.6 °F 1031.0 in WNW 18.5 mph 18.5 mph 79 % 0.0 in 0.0 W/m2 CLR
08:00 1.1 °F -2.1 °F 1031.0 in WNW 14.8 mph 14.8 mph 79 % 0.0 in 0.0 W/m2 CLR
08:04 0.6 °F -2.7 °F 1031.0 in WNW 16.7 mph 16.7 mph 79 % 0.0 in 0.0 W/m2 CLR
08:09 0.0 °F -3.2 °F 1031.0 in West 18.5 mph 18.5 mph 79 % 0.0 in 0.0 W/m2 OVC
08:14 0.0 °F -3.2 °F 1031.0 in WNW 18.5 mph 18.5 mph 79 % 0.0 in 0.0 W/m2 OVC
08:16 0.0 °F -3.2 °F 1031.0 in NW 18.5 mph 18.5 mph 79 % 0.0 in 0.0 W/m2 OVC
08:21 0.6 °F -2.7 °F 1031.0 in WNW 16.7 mph 16.7 mph 79 % 0.0 in 5.0 W/m2 OVC
08:26 1.1 °F -2.1 °F 1031.0 in WNW 13.0 mph 13.0 mph 79 % 0.0 in 7.0 W/m2 BKN
08:27 1.1 °F -2.1 °F 1031.0 in WNW 13.0 mph 13.0 mph 79 % 0.0 in 7.0 W/m2 BKN
08:32 1.1 °F -2.1 °F 1031.0 in NW 14.8 mph 14.8 mph 79 % 0.0 in 11.0 W/m2 BKN
08:35 1.1 °F -2.1 °F 1031.4 in NW 11.3 mph 11.3 mph 79 % 0.0 in 11.0 W/m2 BKN
08:40 1.1 °F -1.9 °F 1031.4 in WNW 9.3 mph 9.3 mph 80 % 0.0 in 14.0 W/m2 BKN
08:41 1.1 °F -1.9 °F 1031.4 in NW 11.1 mph 11.1 mph 80 % 0.0 in 14.0 W/m2 BKN
08:46 0.6 °F -2.5 °F 1031.7 in WNW 5.6 mph 5.6 mph 80 % 0.0 in 16.0 W/m2 BKN
08:51 0.0 °F -3.4 °F 1031.7 in Calm     78 % 0.0 in 19.0 W/m2 BKN
08:52 0.0 °F -3.4 °F 1031.7 in Calm     78 % 0.0 in 19.0 W/m2 BKN
08:57 0.0 °F -3.2 °F 1031.7 in Calm     79 % 0.0 in 25.0 W/m2 BKN
08:58 0.0 °F -3.2 °F 1031.7 in Calm     79 % 0.0 in 25.0 W/m2 BKN
08:59 -0.6 °F -3.8 °F 1031.7 in Calm     79 % 0.0 in 35.0 W/m2 BKN
09:03 -0.6 °F -3.8 °F 1031.7 in Calm     79 % 0.0 in 44.0 W/m2 BKN
09:08 -0.6 °F -3.4 °F 1031.7 in WNW 7.4 mph 7.4 mph 81 % 0.0 in 56.0 W/m2 SCT
09:10 -0.6 °F -3.4 °F 1031.7 in West 6.4 mph 6.4 mph 81 % 0.0 in 58.0 W/m2 SCT
09:14 -0.6 °F -3.4 °F 1032.1 in WNW 11.1 mph 11.1 mph 81 % 0.0 in 70.0 W/m2 SCT
09:19 -0.6 °F -3.8 °F 1032.1 in WNW 9.3 mph 9.3 mph 79 % 0.0 in 79.0 W/m2 FEW
09:20 -0.6 °F -3.8 °F 1031.7 in WNW 9.7 mph 9.7 mph 79 % 0.0 in 79.0 W/m2 FEW
09:25 0.0 °F -3.2 °F 1032.1 in WNW 13.0 mph 13.0 mph 79 % 0.0 in 97.0 W/m2 FEW
09:27 0.6 °F -2.8 °F 1031.7 in NW 13.0 mph 13.0 mph 78 % 0.0 in 83.0 W/m2 CLR
09:30 1.1 °F -2.3 °F 1032.1 in WNW 9.3 mph 9.3 mph 78 % 0.0 in 111.0 W/m2 CLR
09:33 1.7 °F -1.8 °F 1032.1 in WNW 11.1 mph 11.1 mph 78 % 0.0 in 120.0 W/m2 CLR
09:38 2.8 °F -0.7 °F 1032.4 in West 7.4 mph 7.4 mph 78 % 0.0 in 134.0 W/m2 CLR
09:39 2.8 °F -0.8 °F 1032.4 in West 5.6 mph 5.6 mph 77 % 0.0 in 134.0 W/m2 CLR
09:44 3.3 °F -0.3 °F 1032.4 in WNW 7.4 mph 7.4 mph 77 % 0.0 in 144.0 W/m2 CLR
09:45 3.3 °F -0.3 °F 1032.4 in NW 9.7 mph 10.1 mph 77 % 0.0 in 153.0 W/m2 CLR
09:46 3.3 °F -0.3 °F 1032.4 in NW 14.8 mph 14.8 mph 77 % 0.0 in 155.0 W/m2 CLR
09:51 3.3 °F -0.3 °F 1032.4 in NW 22.2 mph 22.2 mph 77 % 0.0 in 169.0 W/m2 CLR
09:56 3.9 °F 0.1 °F 1032.4 in WNW 22.2 mph 22.2 mph 76 % 0.0 in 172.0 W/m2 CLR
10:01 4.4 °F 0.6 °F 1032.7 in WNW 16.7 mph 16.7 mph 76 % 0.0 in 149.0 W/m2 CLR
10:02 4.4 °F 0.6 °F 1032.7 in WNW 14.8 mph 14.8 mph 76 % 0.0 in 153.0 W/m2 CLR
10:05 4.4 °F 0.4 °F 1032.7 in WNW 18.5 mph 18.5 mph 75 % 0.0 in 120.0 W/m2 CLR
10:07 4.4 °F 0.4 °F 1032.7 in NNW 14.8 mph 14.8 mph 75 % 0.0 in 163.0 W/m2 CLR
10:12 4.4 °F 0.4 °F 1033.1 in WNW 20.9 mph 20.9 mph 75 % 0.0 in 207.0 W/m2 CLR
10:17 5.0 °F 0.9 °F 1033.1 in WNW 14.8 mph 14.8 mph 75 % 0.0 in 239.0 W/m2 CLR
10:20 5.0 °F 0.9 °F 1033.1 in NW 11.3 mph 12.9 mph 75 % 0.0 in 246.0 W/m2 CLR
10:24 5.0 °F 0.7 °F 1032.7 in West 18.5 mph 18.5 mph 74 % 0.0 in 260.0 W/m2 CLR
10:25 5.0 °F 0.9 °F 1033.1 in NW 13.0 mph 13.0 mph 75 % 0.0 in 260.0 W/m2 CLR
10:30 5.6 °F 1.3 °F 1033.1 in NW 18.5 mph 18.5 mph 74 % 0.0 in 271.0 W/m2 CLR
10:31 5.6 °F 1.3 °F 1033.1 in NW 18.5 mph 18.5 mph 74 % 0.0 in 274.0 W/m2 CLR
10:36 5.6 °F 1.3 °F 1033.1 in West 18.5 mph 18.5 mph 74 % 0.0 in 283.0 W/m2 CLR
10:38 5.6 °F 1.1 °F 1033.1 in WNW 22.2 mph 22.2 mph 73 % 0.0 in 290.0 W/m2 CLR
10:41 5.6 °F 1.1 °F 1033.4 in NNW 20.4 mph 20.4 mph 73 % 0.0 in 297.0 W/m2 CLR
10:46 5.6 °F 1.1 °F 1033.4 in WNW 16.7 mph 16.7 mph 73 % 0.0 in 304.0 W/m2 CLR
10:47 5.6 °F 1.1 °F 1033.4 in WNW 18.5 mph 18.5 mph 73 % 0.0 in 304.0 W/m2 CLR
10:48 5.6 °F 1.1 °F 1033.4 in NW 19.3 mph 19.3 mph 73 % 0.0 in 309.0 W/m2 CLR
10:52 5.6 °F 0.9 °F 1033.4 in NNW 20.9 mph 20.9 mph 72 % 0.0 in 320.0 W/m2 CLR
10:55 6.1 °F 1.4 °F 1033.4 in NW 24.1 mph 24.1 mph 72 % 0.0 in 329.0 W/m2 CLR
10:58 6.1 °F 1.4 °F 1033.4 in NNW 22.2 mph 22.2 mph 72 % 0.0 in 330.0 W/m2 CLR
11:03 6.1 °F 1.2 °F 1033.4 in NW 24.1 mph 24.1 mph 71 % 0.0 in 374.0 W/m2 CLR
11:04 6.1 °F 1.4 °F 1033.7 in NW 25.9 mph 25.9 mph 72 % 0.0 in 374.0 W/m2 CLR
11:06 6.7 °F 2.0 °F 1033.7 in NW 24.1 mph 24.1 mph 72 % 0.0 in 394.0 W/m2 CLR
11:09 6.7 °F 1.8 °F 1033.7 in WNW 24.1 mph 24.1 mph 71 % 0.0 in 397.0 W/m2 CLR
11:14 6.7 °F 1.8 °F 1033.7 in NW 19.3 mph 19.3 mph 71 % 0.0 in 79.0 W/m2 CLR
11:16 6.7 °F 1.8 °F 1033.7 in NNW 20.4 mph 20.4 mph 71 % 0.0 in 394.0 W/m2 CLR
11:20 6.7 °F 1.8 °F 1033.7 in NNW 24.1 mph 24.1 mph 71 % 0.0 in 404.0 W/m2 CLR
11:21 6.7 °F 1.8 °F 1033.7 in NNW 20.4 mph 20.4 mph 71 % 0.0 in 404.0 W/m2 CLR
11:25 6.7 °F 1.6 °F 1033.7 in NW 18.5 mph 18.5 mph 70 % 0.0 in 380.0 W/m2 CLR
11:27 6.7 °F 1.6 °F 1033.4 in NNW 18.5 mph 18.5 mph 70 % 0.0 in 383.0 W/m2 CLR
11:30 6.7 °F 1.6 °F 1033.4 in NNW 18.5 mph 18.5 mph 70 % 0.0 in 380.0 W/m2 CLR
11:35 6.7 °F 1.4 °F 1033.4 in NNW 14.8 mph 14.8 mph 69 % 0.0 in 396.0 W/m2 CLR
11:36 6.7 °F 1.4 °F 1033.4 in WNW 14.8 mph 14.8 mph 69 % 0.0 in 396.0 W/m2 CLR
11:41 6.7 °F 1.2 °F 1033.4 in NW 18.5 mph 18.5 mph 68 % 0.0 in 408.0 W/m2 CLR
11:46 6.7 °F 0.9 °F 1033.4 in NNW 20.9 mph 20.9 mph 67 % 0.0 in 399.0 W/m2 CLR
11:51 7.2 °F 1.7 °F 1033.4 in NW 14.8 mph 14.8 mph 68 % 0.0 in 408.0 W/m2 CLR
11:52 7.2 °F 1.5 °F 1033.4 in NW 14.5 mph 14.5 mph 67 % 0.0 in 411.0 W/m2 CLR
11:57 7.2 °F 1.5 °F 1033.4 in NNW 20.4 mph 20.4 mph 67 % 0.0 in 408.0 W/m2 CLR
12:00 7.2 °F 1.3 °F 1033.4 in NW 16.7 mph 16.7 mph 66 % 0.0 in 413.0 W/m2 CLR
12:02 7.2 °F 1.1 °F 1033.4 in NNW 20.4 mph 20.4 mph 65 % 0.0 in 411.0 W/m2 CLR
12:07 7.2 °F 1.3 °F 1033.4 in NNW 19.3 mph 19.3 mph 66 % 0.0 in 415.0 W/m2 CLR
12:13 7.8 °F 1.6 °F 1033.1 in NNW 14.8 mph 14.8 mph 65 % 0.0 in 420.0 W/m2 CLR
12:16 7.8 °F 1.6 °F 1033.1 in NNW 11.1 mph 11.1 mph 65 % 0.0 in 422.0 W/m2 CLR
12:18 7.8 °F 1.4 °F 1033.1 in NNW 20.9 mph 20.9 mph 64 % 0.0 in 422.0 W/m2 CLR
12:22 7.8 °F 1.4 °F 1033.1 in NW 16.7 mph 16.7 mph 64 % 0.0 in 425.0 W/m2 CLR
12:25 7.8 °F 1.4 °F 1033.1 in NNW 11.3 mph 11.3 mph 64 % 0.0 in 427.0 W/m2 CLR
12:29 7.8 °F 1.4 °F 1033.1 in NNW 17.7 mph 17.7 mph 64 % 0.0 in 427.0 W/m2 CLR
12:31 7.8 °F 1.4 °F 1033.1 in NNW 22.2 mph 22.2 mph 64 % 0.0 in 431.0 W/m2 CLR
12:36 7.8 °F 1.2 °F 1033.1 in NNW 14.8 mph 14.8 mph 63 % 0.0 in 431.0 W/m2 CLR
12:37 8.3 °F 1.9 °F 1033.1 in North 18.5 mph 18.5 mph 64 % 0.0 in 431.0 W/m2 CLR
12:42 7.8 °F 0.7 °F 1033.1 in NW 22.2 mph 22.2 mph 61 % 0.0 in 432.0 W/m2 CLR
12:44 8.3 °F 1.2 °F 1033.1 in WNW 25.9 mph 25.9 mph 61 % 0.0 in 431.0 W/m2 CLR
12:49 8.3 °F 1.4 °F 1033.1 in NW 18.5 mph 18.5 mph 62 % 0.0 in 432.0 W/m2 CLR
12:54 8.3 °F 1.0 °F 1032.7 in NNW 24.1 mph 24.1 mph 60 % 0.0 in 434.0 W/m2 CLR
12:55 8.3 °F 1.0 °F 1032.7 in NW 22.2 mph 22.2 mph 60 % 0.0 in 434.0 W/m2 CLR
13:00 8.9 °F 1.6 °F 1032.7 in WNW 18.5 mph 18.5 mph 60 % 0.0 in 434.0 W/m2 CLR
13:05 8.3 °F 0.8 °F 1032.7 in WNW 17.7 mph 17.7 mph 59 % 0.0 in 434.0 W/m2 CLR
13:10 8.3 °F 1.0 °F 1032.7 in NNW 22.2 mph 22.2 mph 60 % 0.0 in 432.0 W/m2 CLR
13:12 8.3 °F 1.0 °F 1032.7 in NW 24.1 mph 24.1 mph 60 % 0.0 in 431.0 W/m2 CLR
13:17 8.9 °F 1.6 °F 1032.4 in North 18.5 mph 18.5 mph 60 % 0.0 in 432.0 W/m2 CLR
13:18 8.9 °F 1.6 °F 1032.4 in NNW 22.2 mph 22.2 mph 60 % 0.0 in 431.0 W/m2 CLR
13:23 8.9 °F 1.3 °F 1032.4 in WNW 18.5 mph 18.5 mph 59 % 0.0 in 431.0 W/m2 CLR
13:25 8.9 °F 1.3 °F 1032.4 in NNW 18.5 mph 18.5 mph 59 % 0.0 in 427.0 W/m2 CLR
13:29 8.9 °F 1.1 °F 1032.4 in West 24.1 mph 24.1 mph 58 % 0.0 in 427.0 W/m2 CLR
13:34 8.9 °F 0.8 °F 1032.4 in NW 18.5 mph 18.5 mph 57 % 0.0 in 424.0 W/m2 CLR
13:35 8.9 °F 0.8 °F 1032.4 in NNW 18.5 mph 18.5 mph 57 % 0.0 in 422.0 W/m2 CLR
13:40 9.4 °F 1.6 °F 1032.4 in NNW 25.9 mph 25.9 mph 58 % 0.0 in 420.0 W/m2 CLR
13:41 9.4 °F 1.6 °F 1032.4 in NW 25.9 mph 25.9 mph 58 % 0.0 in 420.0 W/m2 CLR
13:46 9.4 °F 1.6 °F 1032.4 in NNW 25.9 mph 25.9 mph 58 % 0.0 in 417.0 W/m2 CLR
13:47 9.4 °F 1.6 °F 1032.4 in NNW 19.3 mph 19.3 mph 58 % 0.0 in 417.0 W/m2 CLR
13:52 9.4 °F 1.3 °F 1032.1 in North 25.9 mph 25.9 mph 57 % 0.0 in 411.0 W/m2 CLR
13:54 9.4 °F 1.3 °F 1032.1 in NNW 27.8 mph 27.8 mph 57 % 0.0 in 411.0 W/m2 CLR
13:58 9.4 °F 1.3 °F 1032.1 in NNW 29.6 mph 29.6 mph 57 % 0.0 in 406.0 W/m2 CLR
13:59 9.4 °F 1.1 °F 1032.1 in NW 29.6 mph 29.6 mph 56 % 0.0 in 406.0 W/m2 CLR
14:03 9.4 °F 1.1 °F 1032.1 in WNW 24.1 mph 24.1 mph 56 % 0.0 in 403.0 W/m2 CLR
14:08 9.4 °F 1.3 °F 1032.1 in NNW 24.1 mph 24.1 mph 57 % 0.0 in 396.0 W/m2 CLR
14:13 9.4 °F 1.3 °F 1031.7 in NNW 31.5 mph 31.5 mph 57 % 0.0 in 392.0 W/m2 CLR
14:17 10.0 °F 1.6 °F 1031.7 in NW 29.6 mph 29.6 mph 56 % 0.0 in 385.0 W/m2 CLR
14:18 10.0 °F 1.6 °F 1031.7 in NW 25.9 mph 25.9 mph 56 % 0.0 in 383.0 W/m2 CLR
14:23 10.0 °F 1.4 °F 1031.7 in NW 24.1 mph 24.1 mph 55 % 0.0 in 378.0 W/m2 CLR
14:25 9.4 °F 0.6 °F 1031.7 in NNW 29.6 mph 29.6 mph 54 % 0.0 in 374.0 W/m2 CLR
14:30 9.4 °F 0.8 °F 1031.7 in NNW 29.6 mph 29.6 mph 55 % 0.0 in 369.0 W/m2 CLR
14:34 10.0 °F 1.4 °F 1031.7 in NW 20.4 mph 20.4 mph 55 % 0.0 in 360.0 W/m2 CLR
14:38 10.0 °F 1.1 °F 1031.7 in NNW 27.8 mph 27.8 mph 54 % 0.0 in 357.0 W/m2 CLR
14:43 10.6 °F 1.9 °F 1031.7 in NW 22.2 mph 22.2 mph 55 % 0.0 in 348.0 W/m2 CLR
14:44 10.6 °F 1.9 °F 1031.7 in NW 20.4 mph 20.4 mph 55 % 0.0 in 346.0 W/m2 CLR
14:49 10.0 °F 1.1 °F 1031.7 in North 22.2 mph 22.2 mph 54 % 0.0 in 338.0 W/m2 CLR
14:54 10.6 °F 1.6 °F 1031.7 in WNW 18.5 mph 18.5 mph 54 % 0.0 in 330.0 W/m2 CLR
14:55 10.6 °F 1.6 °F 1031.7 in WNW 18.5 mph 18.5 mph 54 % 0.0 in 330.0 W/m2 CLR
14:57 10.0 °F 1.1 °F 1031.7 in NNW 20.4 mph 20.4 mph 54 % 0.0 in 327.0 W/m2 CLR
15:02 10.0 °F 0.8 °F 1031.7 in NW 24.1 mph 24.1 mph 53 % 0.0 in 322.0 W/m2 CLR
15:07 10.0 °F 0.8 °F 1031.7 in North 27.8 mph 27.8 mph 53 % 0.0 in 309.0 W/m2 CLR
15:09 10.6 °F 1.4 °F 1031.7 in NNW 25.9 mph 25.9 mph 53 % 0.0 in 308.0 W/m2 CLR
15:12 10.6 °F 1.4 °F 1031.7 in NW 22.2 mph 22.2 mph 53 % 0.0 in 302.0 W/m2 CLR
15:16 10.6 °F 1.4 °F 1031.7 in NNW 25.9 mph 25.9 mph 53 % 0.0 in 295.0 W/m2 CLR
15:18 10.6 °F 1.1 °F 1031.7 in NNW 31.5 mph 31.5 mph 52 % 0.0 in 288.0 W/m2 CLR
15:23 10.6 °F 1.1 °F 1031.7 in North 25.9 mph 25.9 mph 52 % 0.0 in 281.0 W/m2 CLR
15:24 10.6 °F 1.1 °F 1031.7 in North 25.9 mph 25.9 mph 52 % 0.0 in 281.0 W/m2 CLR
15:25 10.6 °F 1.4 °F 1031.7 in North 25.9 mph 25.9 mph 53 % 0.0 in 278.0 W/m2 CLR
15:29 10.6 °F 1.4 °F 1031.7 in NW 20.4 mph 20.4 mph 53 % 0.0 in 276.0 W/m2 CLR
15:32 10.6 °F 1.4 °F 1031.7 in NW 14.8 mph 16.6 mph 53 % 0.0 in 271.0 W/m2 CLR
15:36 10.6 °F 0.6 °F 1031.7 in North 27.8 mph 27.8 mph 50 % 0.0 in 257.0 W/m2 CLR
15:38 10.6 °F 0.6 °F 1031.7 in North 27.8 mph 27.8 mph 50 % 0.0 in 244.0 W/m2 CLR
15:41 10.6 °F 0.6 °F 1031.4 in NNW 22.2 mph 22.2 mph 50 % 0.0 in 236.0 W/m2 CLR
15:44 10.6 °F 0.8 °F 1031.7 in NW 18.5 mph 19.5 mph 51 % 0.0 in 225.0 W/m2 CLR
15:46 10.6 °F 0.8 °F 1031.7 in NW 22.2 mph 22.2 mph 51 % 0.0 in 220.0 W/m2 CLR
15:51 10.0 °F 0.6 °F 1031.7 in NW 18.5 mph 18.5 mph 52 % 0.0 in 204.0 W/m2 CLR
15:52 10.0 °F 0.6 °F 1031.7 in NW 18.5 mph 18.5 mph 52 % 0.0 in 202.0 W/m2 CLR
15:57 10.0 °F 0.3 °F 1031.7 in NW 25.9 mph 25.9 mph 51 % 0.0 in 192.0 W/m2 CLR
16:00 10.0 °F 0.3 °F 1031.4 in NW 17.7 mph 17.7 mph 51 % 0.0 in 185.0 W/m2 CLR
16:02 9.4 °F -0.4 °F 1031.7 in NNW 20.4 mph 20.4 mph 50 % 0.0 in 176.0 W/m2 CLR
16:07 10.0 °F 0.1 °F 1031.7 in North 24.1 mph 24.1 mph 50 % 0.0 in 162.0 W/m2 CLR
16:10 10.0 °F 0.1 °F 1031.7 in WNW 18.5 mph 18.5 mph 50 % 0.0 in 155.0 W/m2 CLR
16:15 9.4 °F -0.7 °F 1031.7 in NNW 20.4 mph 20.4 mph 49 % 0.0 in 137.0 W/m2 CLR
16:20 9.4 °F -0.7 °F 1031.7 in North 22.2 mph 22.2 mph 49 % 0.0 in 123.0 W/m2 CLR
16:25 9.4 °F -0.7 °F 1031.7 in NNW 27.8 mph 27.8 mph 49 % 0.0 in 109.0 W/m2 CLR
16:26 9.4 °F -0.7 °F 1032.1 in NW 27.8 mph 27.8 mph 49 % 0.0 in 107.0 W/m2 CLR
16:31 9.4 °F -0.7 °F 1032.1 in NNW 25.9 mph 25.9 mph 49 % 0.0 in 93.0 W/m2 CLR
16:36 9.4 °F -0.7 °F 1032.1 in NW 25.9 mph 25.9 mph 49 % 0.0 in 79.0 W/m2 FEW
16:38 9.4 °F -0.7 °F 1032.1 in North 27.8 mph 27.8 mph 49 % 0.0 in 63.0 W/m2 FEW
16:43 9.4 °F -0.4 °F 1032.1 in NNW 22.2 mph 22.2 mph 50 % 0.0 in 54.0 W/m2 SCT
16:48 8.9 °F -1.0 °F 1032.1 in NNW 31.5 mph 31.5 mph 50 % 0.0 in 47.0 W/m2 SCT
16:51 8.9 °F -0.2 °F 1032.1 in NNW 18.5 mph 18.5 mph 53 % 0.0 in 40.0 W/m2 BKN
16:56 8.9 °F 0.1 °F 1032.1 in NNW 25.7 mph 25.7 mph 54 % 0.0 in 32.0 W/m2 BKN
16:57 8.9 °F 0.3 °F 1032.1 in NNW 29.6 mph 29.6 mph 55 % 0.0 in 30.0 W/m2 BKN
17:02 8.9 °F 0.3 °F 1032.4 in NW 11.1 mph 11.1 mph 55 % 0.0 in 16.0 W/m2 BKN
17:07 8.9 °F 0.6 °F 1032.4 in NNW 16.1 mph 16.1 mph 56 % 0.0 in 14.0 W/m2 BKN
17:11 8.9 °F 0.8 °F 1032.4 in NW 20.4 mph 20.4 mph 57 % 0.0 in 12.0 W/m2 BKN
17:12 8.9 °F 0.8 °F 1032.4 in NNW 18.5 mph 18.5 mph 57 % 0.0 in 12.0 W/m2 BKN
17:17 8.3 °F 0.3 °F 1032.4 in NW 13.0 mph 13.0 mph 57 % 0.0 in 11.0 W/m2 BKN
17:20 8.3 °F 0.6 °F 1032.4 in NW 13.0 mph 13.0 mph 58 % 0.0 in 11.0 W/m2 BKN
17:23 8.3 °F 0.6 °F 1032.4 in NW 13.0 mph 13.0 mph 58 % 0.0 in 9.0 W/m2 BKN
17:28 8.3 °F 1.0 °F 1032.4 in NW 18.5 mph 18.5 mph 60 % 0.0 in 7.0 W/m2 BKN
17:29 8.3 °F 1.0 °F 1032.4 in NW 22.2 mph 22.2 mph 60 % 0.0 in 7.0 W/m2 BKN
17:34 7.8 °F 0.5 °F 1032.4 in NW 9.3 mph 9.3 mph 60 % 0.0 in 0.0 W/m2 OVC
17:35 7.8 °F 0.5 °F 1032.4 in WNW 12.9 mph 12.9 mph 60 % 0.0 in 0.0 W/m2 OVC
17:40 7.8 °F 0.7 °F 1032.4 in WNW 9.7 mph 9.7 mph 61 % 0.0 in 0.0 W/m2 OVC
17:43 7.8 °F 0.7 °F 1032.4 in NW 14.8 mph 14.8 mph 61 % 0.0 in 0.0 W/m2 CLR
17:46 7.8 °F 0.9 °F 1032.7 in WNW 14.8 mph 14.8 mph 62 % 0.0 in 0.0 W/m2 CLR
17:51 7.2 °F 0.4 °F 1032.7 in NW 14.8 mph 14.8 mph 62 % 0.0 in 0.0 W/m2 CLR
17:53 7.2 °F 0.7 °F 1032.7 in WNW 18.5 mph 18.5 mph 63 % 0.0 in 0.0 W/m2 CLR
17:56 7.2 °F 0.7 °F 1032.7 in West 18.5 mph 18.5 mph 63 % 0.0 in 0.0 W/m2 CLR
17:59 7.2 °F 0.8 °F 1032.7 in WNW 11.3 mph 11.3 mph 64 % 0.0 in 0.0 W/m2 CLR
18:03 7.2 °F 0.8 °F 1032.7 in WNW 13.0 mph 13.0 mph 64 % 0.0 in 0.0 W/m2 CLR
18:06 7.2 °F 1.1 °F 1032.7 in NW 11.1 mph 11.1 mph 65 % 0.0 in 0.0 W/m2 CLR
18:08 7.2 °F 1.1 °F 1032.7 in WNW 14.8 mph 14.8 mph 65 % 0.0 in 0.0 W/m2 CLR
18:13 7.2 °F 1.1 °F 1032.7 in NNW 16.7 mph 16.7 mph 65 % 0.0 in 0.0 W/m2 CLR
18:23 7.2 °F 1.3 °F 1032.7 in NW 20.9 mph 20.9 mph 66 % 0.0 in 0.0 W/m2 CLR
18:24 7.2 °F 1.3 °F 1032.7 in NW 20.4 mph 20.4 mph 66 % 0.0 in 0.0 W/m2 CLR
18:29 7.2 °F 1.3 °F 1032.7 in NW 22.2 mph 22.2 mph 66 % 0.0 in 0.0 W/m2 CLR
18:34 7.2 °F 1.3 °F 1032.7 in WNW 22.2 mph 22.2 mph 66 % 0.0 in 0.0 W/m2 CLR
18:38 7.2 °F 1.3 °F 1032.7 in WNW 18.5 mph 18.5 mph 66 % 0.0 in 0.0 W/m2 CLR
18:42 6.7 °F 0.8 °F 1032.7 in WNW 13.0 mph 13.0 mph 66 % 0.0 in 0.0 W/m2 CLR
18:44 6.7 °F 0.8 °F 1032.7 in NW 14.8 mph 14.8 mph 66 % 0.0 in 0.0 W/m2 CLR
18:47 6.7 °F 0.8 °F 1032.7 in WNW 20.4 mph 20.4 mph 66 % 0.0 in 0.0 W/m2 CLR
18:50 6.7 °F 0.8 °F 1032.7 in WNW 16.7 mph 16.7 mph 66 % 0.0 in 0.0 W/m2 CLR
18:55 6.7 °F 0.9 °F 1032.7 in West 20.9 mph 20.9 mph 67 % 0.0 in 0.0 W/m2 CLR
18:58 6.7 °F 0.9 °F 1032.7 in West 16.7 mph 16.7 mph 67 % 0.0 in 0.0 W/m2 CLR
19:02 6.7 °F 0.9 °F 1033.1 in WNW 18.5 mph 18.5 mph 67 % 0.0 in 0.0 W/m2 CLR
19:06 6.7 °F 0.9 °F 1033.1 in WNW 16.1 mph 16.1 mph 67 % 0.0 in 0.0 W/m2 CLR
19:08 6.7 °F 1.2 °F 1033.1 in West 11.3 mph 11.3 mph 68 % 0.0 in 0.0 W/m2 CLR
19:13 6.7 °F 1.4 °F 1033.1 in West 13.0 mph 13.0 mph 69 % 0.0 in 0.0 W/m2 CLR
19:14 6.7 °F 1.4 °F 1033.1 in WNW 18.5 mph 18.5 mph 69 % 0.0 in 0.0 W/m2 CLR
19:17 6.7 °F 1.4 °F 1033.1 in WNW 22.2 mph 22.2 mph 69 % 0.0 in 0.0 W/m2 CLR
19:20 6.1 °F 0.7 °F 1033.1 in WNW 20.4 mph 20.4 mph 68 % 0.0 in 0.0 W/m2 CLR
19:25 6.1 °F 0.7 °F 1033.1 in WNW 24.1 mph 24.1 mph 68 % 0.0 in 0.0 W/m2 CLR
19:28 6.1 °F 0.7 °F 1033.1 in WNW 22.2 mph 22.2 mph 68 % 0.0 in 0.0 W/m2 CLR
19:31 6.1 °F 0.7 °F 1033.1 in NW 20.4 mph 20.4 mph 68 % 0.0 in 0.0 W/m2 CLR
19:36 6.1 °F 0.7 °F 1033.1 in NW 18.5 mph 18.5 mph 68 % 0.0 in 0.0 W/m2 CLR
19:41 6.1 °F 0.7 °F 1033.4 in NW 22.2 mph 22.2 mph 68 % 0.0 in 0.0 W/m2 CLR
19:46 6.7 °F 1.2 °F 1033.4 in NW 24.1 mph 24.1 mph 68 % 0.0 in 0.0 W/m2 CLR
19:51 6.7 °F 1.2 °F 1033.4 in NNW 25.9 mph 25.9 mph 68 % 0.0 in 0.0 W/m2 CLR
19:52 6.7 °F 1.2 °F 1033.4 in NW 25.9 mph 25.9 mph 68 % 0.0 in 0.0 W/m2 CLR
19:55 6.7 °F 1.4 °F 1033.4 in NW 29.0 mph 29.0 mph 69 % 0.0 in 0.0 W/m2 CLR
19:57 6.7 °F 1.4 °F 1033.4 in NNW 33.8 mph 33.8 mph 69 % 0.0 in 0.0 W/m2 CLR
20:02 6.7 °F 1.6 °F 1033.4 in NW 35.2 mph 35.2 mph 70 % 0.0 in 0.0 W/m2 CLR
20:03 6.7 °F 1.6 °F 1033.4 in NW 27.8 mph 27.8 mph 70 % 0.0 in 0.0 W/m2 CLR
20:08 6.7 °F 1.6 °F 1033.4 in NW 27.8 mph 27.8 mph 70 % 0.0 in 0.0 W/m2 CLR
20:10 6.7 °F 1.6 °F 1033.4 in NW 27.8 mph 27.8 mph 70 % 0.0 in 0.0 W/m2 CLR
20:14 6.7 °F 1.6 °F 1033.7 in NW 29.6 mph 29.6 mph 70 % 0.0 in 0.0 W/m2 CLR
20:19 6.7 °F 1.6 °F 1033.7 in NW 29.6 mph 29.6 mph 70 % 0.0 in 0.0 W/m2 CLR
20:24 6.7 °F 1.8 °F 1033.7 in NW 25.9 mph 25.9 mph 71 % 0.0 in 0.0 W/m2 CLR
20:26 6.7 °F 1.8 °F 1033.7 in NW 27.8 mph 27.8 mph 71 % 0.0 in 0.0 W/m2 CLR
20:30 6.7 °F 1.8 °F 1033.7 in NW 27.8 mph 27.8 mph 71 % 0.0 in 0.0 W/m2 CLR
20:35 6.7 °F 1.8 °F 1033.7 in NW 33.3 mph 33.3 mph 71 % 0.0 in 0.0 W/m2 CLR
20:37 6.7 °F 1.8 °F 1033.7 in WNW 22.5 mph 22.5 mph 71 % 0.0 in 0.0 W/m2 CLR
20:41 6.7 °F 1.8 °F 1033.7 in NW 24.1 mph 24.1 mph 71 % 0.0 in 0.0 W/m2 CLR
20:46 6.7 °F 2.0 °F 1033.7 in NW 29.6 mph 29.6 mph 72 % 0.0 in 0.0 W/m2 CLR
20:49 6.7 °F 2.0 °F 1033.7 in NW 25.7 mph 25.7 mph 72 % 0.0 in 0.0 W/m2 CLR
20:52 6.7 °F 2.0 °F 1033.7 in NW 25.9 mph 25.9 mph 72 % 0.0 in 0.0 W/m2 CLR
20:55 6.1 °F 1.4 °F 1033.7 in NW 24.1 mph 24.1 mph 72 % 0.0 in 0.0 W/m2 CLR
20:58 6.1 °F 1.4 °F 1033.7 in WNW 24.1 mph 24.1 mph 72 % 0.0 in 0.0 W/m2 CLR
21:03 6.1 °F 1.4 °F 1034.1 in NW 18.5 mph 18.5 mph 72 % 0.0 in 0.0 W/m2 CLR
21:08 6.1 °F 1.6 °F 1034.1 in NW 22.2 mph 22.2 mph 73 % 0.0 in 0.0 W/m2 CLR
21:11 6.1 °F 1.4 °F 1034.1 in NW 22.2 mph 22.2 mph 72 % 0.0 in 0.0 W/m2 CLR
21:12 6.1 °F 1.6 °F 1034.1 in NW 18.5 mph 18.5 mph 73 % 0.0 in 0.0 W/m2 CLR
21:17 6.1 °F 1.6 °F 1034.1 in NW 16.7 mph 16.7 mph 73 % 0.0 in 0.0 W/m2 CLR
21:22 6.1 °F 1.6 °F 1034.1 in NW 20.9 mph 20.9 mph 73 % 0.0 in 0.0 W/m2 CLR
21:23 6.1 °F 1.6 °F 1034.1 in NNW 20.4 mph 20.4 mph 73 % 0.0 in 0.0 W/m2 CLR
21:28 6.1 °F 1.8 °F 1034.1 in NNW 24.1 mph 24.1 mph 74 % 0.0 in 0.0 W/m2 CLR
21:29 6.1 °F 1.8 °F 1034.1 in NW 24.1 mph 24.1 mph 74 % 0.0 in 0.0 W/m2 CLR
21:34 6.1 °F 1.8 °F 1034.1 in NW 18.5 mph 18.5 mph 74 % 0.0 in 0.0 W/m2 CLR
21:39 6.1 °F 1.8 °F 1034.1 in NW 18.5 mph 18.5 mph 74 % 0.0 in 0.0 W/m2 CLR
21:41 6.1 °F 1.8 °F 1034.1 in North 18.5 mph 18.5 mph 74 % 0.0 in 0.0 W/m2 CLR
21:46 6.1 °F 1.8 °F 1034.1 in NW 20.4 mph 20.4 mph 74 % 0.0 in 0.0 W/m2 CLR
21:47 6.1 °F 1.8 °F 1034.1 in NW 24.1 mph 24.1 mph 74 % 0.0 in 0.0 W/m2 CLR
21:52 6.1 °F 1.8 °F 1034.1 in NW 18.5 mph 18.5 mph 74 % 0.0 in 0.0 W/m2 CLR
21:56 6.1 °F 2.0 °F 1034.1 in NW 18.5 mph 18.5 mph 75 % 0.0 in 0.0 W/m2 CLR
21:57 6.1 °F 1.8 °F 1034.1 in NW 24.1 mph 24.1 mph 74 % 0.0 in 0.0 W/m2 CLR
22:02 6.1 °F 1.8 °F 1034.1 in WNW 18.5 mph 18.5 mph 74 % 0.0 in 0.0 W/m2 CLR
22:03 6.1 °F 1.8 °F 1034.1 in NW 18.5 mph 18.5 mph 74 % 0.0 in 0.0 W/m2 CLR
22:07 6.1 °F 1.8 °F 1034.1 in NW 27.8 mph 27.8 mph 74 % 0.0 in 0.0 W/m2 CLR
22:09 6.1 °F 1.8 °F 1034.1 in NW 29.6 mph 29.6 mph 74 % 0.0 in 0.0 W/m2 CLR
22:14 6.1 °F 1.8 °F 1034.1 in NW 22.2 mph 22.2 mph 74 % 0.0 in 0.0 W/m2 CLR
22:18 6.1 °F 1.8 °F 1034.1 in NW 20.9 mph 20.9 mph 74 % 0.0 in 0.0 W/m2 CLR
22:20 6.1 °F 1.8 °F 1034.1 in WNW 20.4 mph 20.4 mph 74 % 0.0 in 0.0 W/m2 CLR
22:25 6.7 °F 2.3 °F 1034.1 in NW 18.5 mph 18.5 mph 74 % 0.0 in 0.0 W/m2 CLR
22:30 6.1 °F 1.8 °F 1034.1 in WNW 18.5 mph 18.5 mph 74 % 0.0 in 0.0 W/m2 CLR
22:31 6.1 °F 1.8 °F 1034.1 in WNW 18.5 mph 18.5 mph 74 % 0.0 in 0.0 W/m2 CLR
22:36 6.1 °F 1.8 °F 1034.1 in NW 18.5 mph 18.5 mph 74 % 0.0 in 0.0 W/m2 CLR
22:41 6.1 °F 1.8 °F 1034.1 in West 17.7 mph 17.7 mph 74 % 0.0 in 0.0 W/m2 CLR
22:43 6.1 °F 1.8 °F 1034.1 in WNW 18.5 mph 18.5 mph 74 % 0.0 in 0.0 W/m2 CLR
22:47 6.1 °F 1.8 °F 1034.1 in WNW 11.1 mph 11.1 mph 74 % 0.0 in 0.0 W/m2 CLR
22:52 6.1 °F 1.8 °F 1034.1 in SW 16.7 mph 16.7 mph 74 % 0.0 in 0.0 W/m2 CLR
22:53 6.1 °F 1.8 °F 1034.1 in West 16.7 mph 16.7 mph 74 % 0.0 in 0.0 W/m2 CLR
22:54 6.1 °F 1.8 °F 1034.1 in West 11.1 mph 11.1 mph 74 % 0.0 in 0.0 W/m2 CLR
22:58 6.1 °F 1.8 °F 1034.1 in West 16.7 mph 16.7 mph 74 % 0.0 in 0.0 W/m2 CLR
23:03 6.1 °F 2.0 °F 1034.1 in WNW 18.5 mph 18.5 mph 75 % 0.0 in 0.0 W/m2 CLR
23:04 6.1 °F 2.0 °F 1034.1 in West 18.5 mph 18.5 mph 75 % 0.0 in 0.0 W/m2 CLR
23:09 6.1 °F 2.2 °F 1034.1 in WNW 14.8 mph 14.8 mph 76 % 0.0 in 0.0 W/m2 CLR
23:10 6.1 °F 2.2 °F 1034.1 in NW 18.5 mph 18.5 mph 76 % 0.0 in 0.0 W/m2 CLR
23:15 6.1 °F 2.2 °F 1034.1 in WNW 22.2 mph 22.2 mph 76 % 0.0 in 0.0 W/m2 CLR
23:17 5.6 °F 1.4 °F 1034.4 in WNW 18.5 mph 18.5 mph 75 % 0.0 in 0.0 W/m2 CLR
23:20 5.6 °F 1.4 °F 1034.4 in WNW 22.2 mph 22.2 mph 75 % 0.0 in 0.0 W/m2 CLR
23:25 5.6 °F 1.4 °F 1034.4 in West 20.9 mph 20.9 mph 75 % 0.0 in 0.0 W/m2 CLR
23:26 5.6 °F 1.4 °F 1034.4 in WNW 20.4 mph 20.4 mph 75 % 0.0 in 0.0 W/m2 CLR
23:29 5.6 °F 1.4 °F 1034.4 in WNW 18.5 mph 18.5 mph 75 % 0.0 in 0.0 W/m2 CLR
23:32 5.6 °F 1.4 °F 1034.4 in WNW 18.5 mph 18.5 mph 75 % 0.0 in 0.0 W/m2 CLR
23:35 5.6 °F 1.4 °F 1034.4 in WNW 18.5 mph 18.5 mph 75 % 0.0 in 0.0 W/m2 CLR
23:37 6.1 °F 2.0 °F 1034.4 in West 16.7 mph 16.7 mph 75 % 0.0 in 0.0 W/m2 CLR
23:42 6.1 °F 2.0 °F 1034.8 in WNW 18.5 mph 18.5 mph 75 % 0.0 in 0.0 W/m2 CLR
23:43 6.1 °F 2.0 °F 1034.8 in West 9.3 mph 9.3 mph 75 % 0.0 in 0.0 W/m2 CLR
23:45 6.1 °F 2.0 °F 1034.8 in West 14.8 mph 14.8 mph 75 % 0.0 in 0.0 W/m2 CLR
23:48 5.6 °F 1.4 °F 1034.8 in West 13.0 mph 13.0 mph 75 % 0.0 in 0.0 W/m2 CLR
23:51 5.6 °F 1.4 °F 1034.8 in WNW 11.1 mph 11.1 mph 75 % 0.0 in 0.0 W/m2 CLR
23:53 5.6 °F 1.4 °F 1034.8 in WNW 11.1 mph 11.1 mph 75 % 0.0 in 0.0 W/m2 CLR
23:58 5.6 °F 1.4 °F 1034.8 in WNW 16.7 mph 16.7 mph 75 % 0.0 in 0.0 W/m2 CLR
23:59 5.6 °F 1.4 °F 1034.8 in WNW 13.0 mph 13.0 mph 75 % 0.0 in 0.0 W/m2 CLR
Lo Temps de Massalio
Compliments of Weather Underground - 1.5 mb